Time;durP1;ratioP1;P1;durP2;ratioP2;P2;SDS_P1;SDS_P2;PMS_P1;PMS_P2;Temp;Humidity;BMP_temperature;BMP_pressure;BME280_temperature;BME280_humidity;BME280_pressure;Samples;Min_cycle;Max_cycle;Signal;HPM_P1;HPM_P2
2023/07/10 00:00:04;;;;;;;13.52;4.90;;;;;;;-144.47;45.84;52540.31;5051832;28;20029;-66
2023/07/10 00:02:30;;;;;;;11.45;4.57;;;;;;;-144.47;46.75;52554.22;5050626;28;20066;-67
2023/07/10 00:04:55;;;;;;;12.32;4.85;;;;;;;-144.47;48.18;52542.28;5051411;28;20025;-67
2023/07/10 00:07:20;;;;;;;17.25;5.35;;;;;;;-144.47;48.96;52520.44;5051224;28;20095;-65
2023/07/10 00:09:46;;;;;;;11.05;4.82;;;;;;;-144.47;50.25;52524.41;5052739;28;20107;-66
2023/07/10 00:12:21;;;;;;;16.55;5.32;;;;;;;-144.47;51.75;52532.38;5051054;28;20048;-64
2023/07/10 00:14:47;;;;;;;20.63;5.40;;;;;;;-144.47;53.17;52512.50;5025427;28;20051;-67
2023/07/10 00:17:14;;;;;;;12.13;5.63;;;;;;;-144.47;54.23;52542.28;5052810;28;20028;-64
2023/07/10 00:19:41;;;;;;;12.20;4.82;;;;;;;-144.47;54.68;52552.22;5052789;28;20029;-66
2023/07/10 00:22:06;;;;;;;14.10;5.07;;;;;;;-144.47;56.01;52518.47;5050992;28;20047;-67
2023/07/10 00:24:32;;;;;;;11.70;4.82;;;;;;;-144.47;57.10;52536.34;5038561;28;20017;-64
2023/07/10 00:26:57;;;;;;;15.43;5.15;;;;;;;-144.47;57.56;52524.41;5050615;28;20041;-67
2023/07/10 00:29:27;;;;;;;12.18;4.78;;;;;;;-144.47;58.22;52510.53;5050332;28;20053;-66
2023/07/10 00:31:52;;;;;;;12.77;5.40;;;;;;;-144.47;57.24;52498.59;5052464;28;20017;-64
2023/07/10 00:34:25;;;;;;;13.68;5.43;;;;;;;-144.47;57.50;52538.31;5051826;28;20021;-66
2023/07/10 00:36:51;;;;;;;12.93;4.53;;;;;;;-144.47;56.72;52536.34;5052457;28;20021;-66
2023/07/10 00:42:08;;;;;;;11.35;5.60;;;;;;;-144.47;55.82;52532.38;5029720;28;20460;-69
2023/07/10 00:44:43;;;;;;;10.25;5.00;;;;;;;-144.47;55.70;52538.31;4980834;28;20407;-69
2023/07/10 00:47:16;;;;;;;13.73;5.63;;;;;;;-144.47;55.43;52522.44;5024099;28;20049;-67
2023/07/10 00:49:58;;;;;;;12.90;5.20;;;;;;;-144.47;54.84;52528.41;5014001;28;20084;-69
2023/07/10 00:52:39;;;;;;;13.95;4.95;;;;;;;-144.47;54.78;52512.50;5012759;28;20048;-70
2023/07/10 00:55:18;;;;;;;10.07;4.95;;;;;;;-144.47;54.38;52504.56;5013882;28;20053;-71
2023/07/10 00:57:48;;;;;;;9.02;5.57;;;;;;;-144.47;54.22;52546.25;5031574;28;20052;-69
2023/07/10 01:00:18;;;;;;;16.17;5.63;;;;;;;-144.47;53.78;52526.41;5030854;28;20383;-70
2023/07/10 01:02:43;;;;;;;14.77;5.35;;;;;;;-144.47;53.52;52542.28;5012253;28;20120;-70
2023/07/10 01:05:09;;;;;;;9.93;5.22;;;;;;;-144.47;53.22;52522.44;5009517;28;20041;-70
2023/07/10 01:07:47;;;;;;;10.13;4.70;;;;;;;-144.47;53.52;52518.47;5029252;28;20029;-69
2023/07/10 01:10:12;;;;;;;15.80;5.05;;;;;;;-144.47;53.58;52526.41;5027324;28;20037;-67
2023/07/10 01:12:41;;;;;;;9.73;5.03;;;;;;;-144.47;53.37;52542.28;5007785;28;20022;-69
2023/07/10 01:15:07;;;;;;;20.27;5.93;;;;;;;-144.47;53.56;52520.44;5023739;28;20075;-70
2023/07/10 01:17:34;;;;;;;10.05;4.90;;;;;;;-144.47;53.68;52518.47;5020728;28;20029;-68
2023/07/10 01:20:24;;;;;;;10.93;5.10;;;;;;;-144.47;53.56;52536.34;5017055;28;20047;-70
2023/07/10 01:22:50;;;;;;;9.95;4.65;;;;;;;-144.47;53.31;52530.38;5014446;28;20518;-69
2023/07/10 01:25:15;;;;;;;15.75;6.15;;;;;;;-144.47;52.75;52502.56;5005617;28;20042;-68
2023/07/10 01:27:40;;;;;;;10.40;5.05;;;;;;;-144.47;52.31;52514.50;5031131;28;20628;-69
2023/07/10 01:30:21;;;;;;;13.07;5.10;;;;;;;-144.47;52.17;52540.31;5030441;28;20049;-69
2023/07/10 01:32:48;;;;;;;16.58;5.55;;;;;;;-144.47;52.25;52526.41;5031325;28;20048;-69
2023/07/10 01:35:15;;;;;;;12.13;5.20;;;;;;;-144.47;52.07;52526.41;5029576;28;20136;-67
2023/07/10 01:37:40;;;;;;;14.77;5.13;;;;;;;-144.47;51.72;52558.19;5026082;28;20044;-70
2023/07/10 01:40:13;;;;;;;8.15;5.00;;;;;;;-144.47;51.41;52546.25;5030782;28;20467;-71
2023/07/10 01:42:38;;;;;;;7.57;4.88;;;;;;;-144.47;51.05;52540.31;5008428;28;20551;-69
2023/07/10 01:45:11;;;;;;;10.13;4.90;;;;;;;-144.47;50.86;52546.25;5021058;28;20028;-69
2023/07/10 01:47:36;;;;;;;13.05;5.03;;;;;;;-144.47;50.20;52524.41;5027792;28;20101;-70
2023/07/10 01:50:02;;;;;;;11.32;4.90;;;;;;;-144.47;49.96;52520.44;5020129;28;20048;-70
2023/07/10 01:52:27;;;;;;;8.82;4.82;;;;;;;-144.47;49.61;52490.66;5027177;28;20040;-71
2023/07/10 01:54:52;;;;;;;11.80;4.90;;;;;;;-144.47;49.60;52542.28;5030205;28;20018;-70
2023/07/10 01:57:23;;;;;;;9.82;4.38;;;;;;;-144.47;49.38;52546.25;5014078;28;20040;-70
2023/07/10 01:59:49;;;;;;;11.98;4.60;;;;;;;-144.47;49.71;52520.44;4993351;28;20379;-70
2023/07/10 02:02:15;;;;;;;11.85;4.40;;;;;;;-144.47;49.51;52530.38;5027892;28;20166;-70
2023/07/10 02:04:40;;;;;;;10.82;5.45;;;;;;;-144.47;49.38;52544.28;5019627;28;20117;-69
2023/07/10 02:07:06;;;;;;;8.98;4.65;;;;;;;-144.47;49.58;52532.38;5025392;28;20108;-69
2023/07/10 02:09:31;;;;;;;8.70;5.00;;;;;;;-144.47;49.43;52540.31;5030694;28;20033;-71
2023/07/10 02:11:57;;;;;;;9.82;4.95;;;;;;;-144.47;49.13;52544.28;5005633;28;20043;-70
2023/07/10 02:14:24;;;;;;;14.82;5.65;;;;;;;-144.47;48.93;52526.41;5023472;28;20170;-69
2023/07/10 02:16:50;;;;;;;13.27;4.57;;;;;;;-144.47;48.76;52536.34;5026460;28;20022;-67
2023/07/10 02:19:15;;;;;;;11.18;4.80;;;;;;;-144.47;48.87;52528.41;5020535;28;20471;-67
2023/07/10 02:21:41;;;;;;;9.93;5.18;;;;;;;-144.47;49.18;52542.28;5024376;28;20017;-70
2023/07/10 02:24:07;;;;;;;12.50;4.97;;;;;;;-144.47;49.39;52510.53;5005557;28;20036;-70
2023/07/10 02:26:33;;;;;;;8.93;4.85;;;;;;;-144.47;49.46;52526.41;5026222;28;20029;-70
2023/07/10 02:28:59;;;;;;;10.00;4.88;;;;;;;-144.47;50.11;52544.28;5029900;28;20112;-69
2023/07/10 02:31:26;;;;;;;10.40;4.93;;;;;;;-144.47;50.74;52506.53;5017299;28;20107;-70
2023/07/10 02:33:51;;;;;;;9.32;4.57;;;;;;;-144.47;51.13;52552.22;5030648;28;20018;-70
2023/07/10 02:36:17;;;;;;;8.13;4.50;;;;;;;-144.47;51.30;52538.31;5029753;28;20128;-71
2023/07/10 02:38:42;;;;;;;11.05;4.65;;;;;;;-144.47;51.44;52536.34;5025839;28;20025;-70
2023/07/10 02:41:08;;;;;;;10.48;5.63;;;;;;;-144.47;51.69;52534.34;5028763;28;20628;-69
2023/07/10 02:43:36;;;;;;;10.50;4.85;;;;;;;-144.47;52.32;52524.41;5018964;28;20550;-70
2023/07/10 02:46:02;;;;;;;10.68;6.10;;;;;;;-144.47;52.27;52526.41;5023180;28;20073;-69
2023/07/10 02:48:27;;;;;;;12.13;4.80;;;;;;;-144.47;51.88;52538.31;5019624;28;20108;-71
2023/07/10 02:50:52;;;;;;;11.75;4.70;;;;;;;-144.47;52.04;52554.22;5012436;28;20116;-70
2023/07/10 02:53:18;;;;;;;12.30;5.05;;;;;;;-144.47;51.69;52548.25;5009594;28;20017;-70
2023/07/10 02:55:44;;;;;;;9.13;4.65;;;;;;;-144.47;51.64;52546.25;5012028;28;20025;-70
2023/07/10 02:58:09;;;;;;;8.40;4.82;;;;;;;-144.47;51.27;52506.53;4985461;28;20029;-69
2023/07/10 03:00:35;;;;;;;12.88;4.35;;;;;;;-144.47;51.11;52542.28;5011807;28;20041;-70
2023/07/10 03:03:00;;;;;;;11.18;5.10;;;;;;;-144.47;51.27;52522.44;5029640;28;20080;-70
2023/07/10 03:05:26;;;;;;;11.98;5.18;;;;;;;-144.47;51.57;52516.47;5027880;28;20028;-69
2023/07/10 03:07:51;;;;;;;10.10;5.15;;;;;;;-144.47;51.64;52528.41;5025798;28;20471;-70
2023/07/10 03:10:18;;;;;;;11.73;5.15;;;;;;;-144.47;51.88;52550.25;5004682;28;20064;-69
2023/07/10 03:12:44;;;;;;;8.32;4.85;;;;;;;-144.47;52.04;52532.38;5012520;28;20099;-69
2023/07/10 03:15:09;;;;;;;12.68;4.95;;;;;;;-144.47;52.36;52514.50;5010500;28;20403;-69
2023/07/10 03:17:35;;;;;;;9.30;4.68;;;;;;;-144.47;52.71;52502.56;5003401;28;20425;-72
2023/07/10 03:20:00;;;;;;;8.65;4.82;;;;;;;-144.47;52.96;52532.38;5023551;28;20033;-70
2023/07/10 03:22:26;;;;;;;12.60;6.00;;;;;;;-144.47;53.19;52498.59;5019297;28;20014;-69
2023/07/10 03:24:52;;;;;;;10.90;4.97;;;;;;;-144.47;53.25;52508.53;4997544;28;20050;-70
2023/07/10 03:27:17;;;;;;;8.02;4.78;;;;;;;-144.47;53.40;52528.41;5030107;28;20021;-69
2023/07/10 03:29:43;;;;;;;9.75;4.60;;;;;;;-144.47;53.38;52520.44;5033410;28;20086;-68
2023/07/10 03:32:08;;;;;;;9.60;5.03;;;;;;;-144.47;53.53;52532.38;5024917;28;20362;-69
2023/07/10 03:34:34;;;;;;;13.63;4.93;;;;;;;-144.47;53.51;52532.38;5034652;28;20044;-71
2023/07/10 03:36:59;;;;;;;10.57;5.13;;;;;;;-144.47;53.23;52536.34;5026260;28;20018;-71
2023/07/10 03:39:25;;;;;;;12.65;5.22;;;;;;;-144.47;53.00;52532.38;5029793;28;20032;-72
2023/07/10 03:41:50;;;;;;;8.77;4.60;;;;;;;-144.47;52.67;52554.22;5023828;28;20471;-71
2023/07/10 03:44:15;;;;;;;10.00;4.75;;;;;;;-144.47;52.71;52544.28;5021221;28;20164;-71
2023/07/10 03:46:41;;;;;;;15.85;5.05;;;;;;;-144.47;52.55;52538.31;5035715;28;20096;-68
2023/07/10 03:49:06;;;;;;;12.63;4.95;;;;;;;-144.47;52.51;52534.34;5021908;28;20029;-67
2023/07/10 03:51:32;;;;;;;10.27;4.95;;;;;;;-144.47;52.42;52530.38;5034740;28;20028;-70
2023/07/10 03:53:58;;;;;;;8.98;4.80;;;;;;;-144.47;52.35;52524.41;5021138;28;20033;-69
2023/07/10 03:56:23;;;;;;;8.60;4.70;;;;;;;-144.47;52.07;52526.41;5035482;28;20033;-69
2023/07/10 03:58:48;;;;;;;7.18;4.35;;;;;;;-144.47;51.94;52546.25;5034781;28;20491;-70
2023/07/10 04:01:15;;;;;;;10.75;4.43;;;;;;;-144.47;52.09;52516.47;5028267;28;20029;-68
2023/07/10 04:03:40;;;;;;;10.95;4.55;;;;;;;-144.47;52.48;52550.25;5029362;28;20018;-68
2023/07/10 04:06:08;;;;;;;9.75;4.20;;;;;;;-144.47;53.01;52538.31;5027777;28;20022;-67
2023/07/10 04:08:36;;;;;;;13.25;4.88;;;;;;;-144.47;54.28;52564.13;5014024;28;20290;-68
2023/07/10 04:11:14;;;;;;;8.98;4.47;;;;;;;-144.47;54.91;52532.38;5008550;28;20034;-70
2023/07/10 04:13:40;;;;;;;15.45;5.55;;;;;;;-144.47;55.55;52530.38;5020481;28;20033;-69
2023/07/10 04:16:11;;;;;;;14.13;5.40;;;;;;;-144.47;56.19;52554.22;5035574;28;20037;-69
2023/07/10 04:18:39;;;;;;;10.23;5.70;;;;;;;-144.47;61.62;52482.72;5032060;28;20033;-69
2023/07/10 04:21:15;;;;;;;10.95;5.25;;;;;;;-144.47;60.89;52538.31;5025449;28;20021;-69
2023/07/10 04:23:41;;;;;;;11.02;5.60;;;;;;;-144.47;62.32;52540.31;5012490;28;20075;-66
2023/07/10 04:26:15;;;;;;;12.60;6.05;;;;;;;-144.47;61.75;52494.63;5022390;28;20064;-68
2023/07/10 04:28:40;;;;;;;14.13;5.85;;;;;;;-144.47;62.86;52516.47;5027666;28;20028;-70
2023/07/10 04:31:06;;;;;;;15.10;5.47;;;;;;;-144.47;63.00;52520.44;5026572;28;20025;-69
2023/07/10 04:33:31;;;;;;;11.40;5.35;;;;;;;-144.47;63.05;52540.31;5014888;28;20026;-67
2023/07/10 04:35:57;;;;;;;11.27;5.32;;;;;;;-144.47;62.81;52524.41;5014698;28;20026;-68
2023/07/10 04:38:26;;;;;;;9.15;5.50;;;;;;;-144.47;62.70;52532.38;4996986;28;20025;-71
2023/07/10 04:41:05;;;;;;;11.95;5.15;;;;;;;-144.47;63.60;52546.25;5013807;28;20505;-68
2023/07/10 04:43:33;;;;;;;11.63;5.07;;;;;;;-144.47;61.96;52514.50;5020828;28;20091;-68
2023/07/10 04:46:02;;;;;;;13.15;6.03;;;;;;;-144.47;62.71;52542.28;5028171;28;20100;-70
2023/07/10 04:48:28;;;;;;;13.88;6.07;;;;;;;-144.47;63.58;52550.25;5032543;28;20168;-70
2023/07/10 04:50:55;;;;;;;13.45;5.90;;;;;;;-144.47;66.33;52528.41;5026381;28;20211;-66
2023/07/10 04:53:22;;;;;;;16.55;5.93;;;;;;;-144.47;68.49;52520.44;5011639;28;20072;-71
2023/07/10 04:55:49;;;;;;;11.60;5.75;;;;;;;-144.47;70.53;52514.50;5017563;28;20017;-69
2023/07/10 04:58:15;;;;;;;18.25;6.50;;;;;;;-144.47;73.33;52528.41;5020780;28;20041;-67
2023/07/10 05:00:40;;;;;;;18.83;6.22;;;;;;;-144.47;72.98;52520.44;5017780;28;20110;-68
2023/07/10 05:03:07;;;;;;;15.63;6.15;;;;;;;-144.47;75.42;52560.16;5010824;28;20021;-71
2023/07/10 05:05:32;;;;;;;13.95;6.40;;;;;;;-144.47;81.86;52558.19;5023498;28;20467;-72
2023/07/10 05:07:59;;;;;;;13.07;6.65;;;;;;;-144.47;82.82;52526.41;5010753;28;20037;-71
2023/07/10 05:10:24;;;;;;;11.32;6.35;;;;;;;-144.47;79.68;52524.41;5017022;28;20451;-68
2023/07/10 05:12:50;;;;;;;14.40;6.70;;;;;;;-144.47;80.75;52558.19;5006330;28;20058;-68
2023/07/10 05:15:15;;;;;;;10.95;5.65;;;;;;;-144.47;80.25;52530.38;5019219;28;20471;-70
2023/07/10 05:17:41;;;;;;;14.50;6.45;;;;;;;-144.47;80.99;52526.41;5021024;28;20033;-70
2023/07/10 05:20:08;;;;;;;11.55;5.80;;;;;;;-144.47;81.20;52520.44;5026889;28;20037;-70
2023/07/10 05:22:33;;;;;;;9.98;5.90;;;;;;;-144.47;78.83;52538.31;5010683;28;20036;-70
2023/07/10 05:24:59;;;;;;;12.23;5.95;;;;;;;-144.47;77.08;52534.34;5007417;28;20022;-69
2023/07/10 05:27:25;;;;;;;12.82;6.15;;;;;;;-144.47;73.17;52526.41;5020762;28;20087;-71
2023/07/10 05:29:50;;;;;;;12.40;6.65;;;;;;;-144.47;72.96;52526.41;4996552;28;20541;-70
2023/07/10 05:32:15;;;;;;;9.82;5.53;;;;;;;-144.47;69.32;52548.25;5011945;28;20026;-69
2023/07/10 05:34:41;;;;;;;15.48;5.60;;;;;;;-144.47;69.09;52554.22;5026562;28;20040;-70
2023/07/10 05:37:07;;;;;;;12.52;5.68;;;;;;;-144.47;65.52;52534.34;5021051;28;20022;-69
2023/07/10 05:39:32;;;;;;;12.23;5.45;;;;;;;-144.47;63.55;52580.03;5003789;28;20027;-68
2023/07/10 05:41:58;;;;;;;18.45;5.72;;;;;;;-144.47;64.77;52546.25;5006834;28;20463;-71
2023/07/10 05:44:23;;;;;;;12.98;5.05;;;;;;;-144.47;65.58;52572.09;5008340;28;20041;-67
2023/07/10 05:46:49;;;;;;;14.40;4.60;;;;;;;-144.47;64.98;52544.28;5007152;28;20014;-69
2023/07/10 05:49:14;;;;;;;10.60;5.57;;;;;;;-144.47;63.80;52528.41;5003112;28;20452;-71
2023/07/10 05:51:39;;;;;;;15.18;6.22;;;;;;;-144.47;63.83;52522.44;5002185;28;20021;-70
2023/07/10 05:54:05;;;;;;;10.38;5.63;;;;;;;-144.47;63.33;52534.34;5006047;28;20037;-69
2023/07/10 05:56:30;;;;;;;11.00;5.25;;;;;;;-144.47;63.53;52558.19;5005115;28;20029;-68
2023/07/10 05:58:56;;;;;;;10.48;5.30;;;;;;;-144.47;63.74;52546.25;5008068;28;20024;-69
2023/07/10 06:01:21;;;;;;;13.52;5.07;;;;;;;-144.47;62.13;52548.25;5002614;28;20045;-69
2023/07/10 06:03:47;;;;;;;12.48;5.57;;;;;;;-144.47;63.31;52554.22;4986418;28;20458;-70
2023/07/10 06:06:12;;;;;;;12.75;5.78;;;;;;;-144.47;63.18;52570.09;5003490;28;20045;-69
2023/07/10 06:08:38;;;;;;;14.85;5.57;;;;;;;-144.47;64.67;52578.03;5002799;28;20020;-69
2023/07/10 06:11:06;;;;;;;10.60;5.22;;;;;;;-144.47;64.45;52522.44;5004109;28;20032;-69
2023/07/10 06:13:32;;;;;;;15.38;5.60;;;;;;;-144.47;62.26;52534.34;5008139;28;20032;-68
2023/07/10 06:15:59;;;;;;;10.88;5.60;;;;;;;-144.47;62.57;52558.19;4986623;28;20026;-68
2023/07/10 06:18:25;;;;;;;10.20;5.25;;;;;;;-144.47;62.21;52540.31;5003954;28;20052;-67
2023/07/10 06:20:56;;;;;;;11.50;5.68;;;;;;;-144.47;62.16;52574.06;5002222;28;20045;-69
2023/07/10 06:23:22;;;;;;;12.93;5.25;;;;;;;-144.47;60.24;52550.25;5002448;28;20132;-68
2023/07/10 06:25:49;;;;;;;14.48;5.80;;;;;;;-144.47;58.50;52554.22;4993632;28;20113;-73
2023/07/10 06:28:14;;;;;;;14.35;5.40;;;;;;;-144.47;57.76;52580.03;4976342;28;20026;-71
2023/07/10 06:30:41;;;;;;;9.80;5.40;;;;;;;-144.47;57.13;52556.19;4993615;28;20068;-71
2023/07/10 06:33:07;;;;;;;14.05;6.00;;;;;;;-144.47;56.79;52572.09;4992063;28;20021;-72
2023/07/10 06:35:33;;;;;;;11.48;5.57;;;;;;;-144.47;56.54;52552.22;4995883;28;20030;-68
2023/07/10 06:37:58;;;;;;;11.52;5.55;;;;;;;-144.47;55.91;52558.19;4989931;28;20107;-71
2023/07/10 06:40:24;;;;;;;12.15;5.05;;;;;;;-144.47;54.80;52578.03;5033692;23;20033;-72
2023/07/10 06:42:49;;;;;;;9.75;4.95;;;;;;;-144.47;54.26;52576.06;5058933;28;20040;-71
2023/07/10 06:45:15;;;;;;;14.20;5.03;;;;;;;-144.47;54.10;52562.16;5057870;28;20370;-75
2023/07/10 06:47:42;;;;;;;13.85;5.45;;;;;;;-144.47;53.59;52558.19;5050426;28;20056;-71
2023/07/10 06:50:09;;;;;;;15.50;5.88;;;;;;;-144.47;53.52;52562.16;5060339;28;20108;-71
2023/07/10 06:52:38;;;;;;;13.27;5.65;;;;;;;-144.47;52.93;52566.13;5041113;28;20032;-72
2023/07/10 06:55:04;;;;;;;12.95;5.70;;;;;;;-144.47;53.62;52572.09;5033902;28;20040;-73
2023/07/10 06:57:29;;;;;;;12.55;5.18;;;;;;;-144.47;53.24;52548.25;5040697;28;20073;-73
2023/07/10 06:59:55;;;;;;;7.40;4.60;;;;;;;-144.47;53.36;52585.97;5041210;28;20031;-73
2023/07/10 07:02:20;;;;;;;15.95;5.53;;;;;;;-144.47;52.66;52558.19;5039500;28;20097;-71
2023/07/10 07:04:45;;;;;;;12.65;5.13;;;;;;;-144.47;53.20;52572.09;5039305;28;20048;-72
2023/07/10 07:07:11;;;;;;;9.32;5.10;;;;;;;-144.47;53.16;52580.03;5041347;28;20059;-74
2023/07/10 07:09:36;;;;;;;17.23;5.20;;;;;;;-144.47;53.45;52582.00;5040355;28;20056;-73
2023/07/10 07:12:02;;;;;;;19.70;5.95;;;;;;;-144.47;53.18;52566.13;5039937;28;20162;-73
2023/07/10 07:14:27;;;;;;;14.60;5.53;;;;;;;-144.47;52.85;52578.03;5030561;28;20028;-74
2023/07/10 07:16:53;;;;;;;16.90;5.50;;;;;;;-144.47;52.49;52599.88;5039132;28;20112;-72
2023/07/10 07:19:19;;;;;;;15.18;5.40;;;;;;;-144.47;51.33;52593.94;5040173;28;20374;-72
2023/07/10 07:21:45;;;;;;;19.35;5.20;;;;;;;-144.47;49.67;52595.91;5039860;28;20037;-75
2023/07/10 07:24:10;;;;;;;13.63;5.20;;;;;;;-144.47;49.18;52576.06;5036406;28;20025;-74
2023/07/10 07:26:36;;;;;;;9.32;5.00;;;;;;;-144.47;47.94;52591.94;5041306;28;20077;-75
2023/07/10 07:29:01;;;;;;;11.02;4.93;;;;;;;-144.47;47.81;52593.94;5041315;28;20025;-72
2023/07/10 07:31:30;;;;;;;8.85;4.82;;;;;;;-144.47;47.87;52584.00;4997739;28;20028;-74
2023/07/10 07:33:55;;;;;;;;;;;;;;;-144.47;47.21;52591.94;5026358;28;20059;-72
2023/07/10 07:36:21;;;;;;;13.32;5.05;;;;;;;-144.47;46.88;52593.94;5041620;28;19984;-75
2023/07/10 07:38:46;;;;;;;13.25;5.38;;;;;;;-144.47;47.35;52597.91;5043308;28;20025;-72
2023/07/10 07:41:12;;;;;;;13.80;6.28;;;;;;;-144.47;46.85;52591.94;5043805;28;20470;-73
2023/07/10 07:43:37;;;;;;;14.50;5.97;;;;;;;-144.47;46.63;52603.84;5038505;28;20064;-72
2023/07/10 07:46:03;;;;;;;29.20;5.88;;;;;;;-144.47;46.36;52587.97;5040117;28;20792;-73
2023/07/10 07:48:28;;;;;;;15.77;5.38;;;;;;;-144.47;46.69;52627.69;5040766;28;20059;-70
2023/07/10 07:51:05;;;;;;;22.23;5.20;;;;;;;-144.47;46.29;52621.72;5040677;28;20125;-72
2023/07/10 07:53:33;;;;;;;11.02;5.43;;;;;;;-144.47;46.03;52641.59;5037928;28;20100;-71
2023/07/10 07:55:59;;;;;;;;;;;;;;;-144.47;45.56;52623.72;5045485;28;20210;-69
2023/07/10 07:58:25;;;;;;;18.65;5.75;;;;;;;-144.47;46.03;52599.88;5041249;28;19944;-70
2023/07/10 08:00:51;;;;;;;14.82;5.82;;;;;;;-144.47;45.91;52649.53;5042363;28;20051;-70
2023/07/10 08:03:17;;;;;;;21.10;5.90;;;;;;;-144.47;46.78;52633.66;5038385;28;21447;-72
2023/07/10 08:05:42;;;;;;;11.55;6.18;;;;;;;-144.47;47.94;52623.72;5039657;28;20037;-75
2023/07/10 08:08:10;;;;;;;13.68;6.05;;;;;;;-144.47;49.28;52637.63;5031040;28;20063;-72
2023/07/10 08:10:39;;;;;;;11.90;6.85;;;;;;;-144.47;49.13;52627.69;5014165;28;20029;-71
2023/07/10 08:13:05;;;;;;;13.70;6.93;;;;;;;-144.47;49.48;52627.69;5012762;28;20084;-70
2023/07/10 08:15:31;;;;;;;15.18;6.65;;;;;;;-144.47;49.56;52635.63;5040369;28;21584;-69
2023/07/10 08:17:56;;;;;;;20.73;6.28;;;;;;;-144.47;50.52;52631.66;5044353;28;20067;-71
2023/07/10 08:20:22;;;;;;;15.30;6.80;;;;;;;-144.47;49.83;52574.06;5042851;28;20444;-69
2023/07/10 08:22:47;;;;;;;12.95;6.30;;;;;;;-144.47;48.53;52629.69;5035903;28;20056;-72
2023/07/10 08:25:13;;;;;;;13.48;6.05;;;;;;;-144.47;47.90;52611.81;5042285;28;20024;-73
2023/07/10 08:27:38;;;;;;;16.10;6.60;;;;;;;-144.47;46.54;52639.59;5044330;28;20035;-73
2023/07/10 08:30:04;;;;;;;16.00;7.00;;;;;;;-144.47;46.00;52605.84;5041979;28;20040;-70
2023/07/10 08:32:30;;;;;;;14.52;6.40;;;;;;;-144.47;47.02;52633.66;5044010;28;20040;-70
2023/07/10 08:34:55;;;;;;;19.77;6.60;;;;;;;-144.47;47.68;52623.72;5038260;28;20150;-72
2023/07/10 08:37:20;;;;;;;15.98;6.90;;;;;;;-144.47;47.15;52617.75;5043988;28;20155;-71
2023/07/10 08:39:47;;;;;;;14.07;6.00;;;;;;;-144.47;47.63;52597.91;5033897;28;20386;-71
2023/07/10 08:42:19;;;;;;;23.73;7.55;;;;;;;-144.47;48.57;52631.66;5042859;28;20029;-70
2023/07/10 08:44:48;;;;;;;23.92;8.15;;;;;;;-144.47;49.06;52627.69;5038545;28;20383;-70
2023/07/10 08:47:26;;;;;;;19.15;7.68;;;;;;;-144.47;49.17;52647.56;5029291;28;20525;-73
2023/07/10 08:50:00;;;;;;;12.55;6.90;;;;;;;-144.47;49.61;52597.91;5041565;28;20024;-72
2023/07/10 08:52:36;;;;;;;17.98;6.80;;;;;;;-144.47;49.06;52615.78;5043694;28;20554;-70
2023/07/10 08:55:01;;;;;;;19.25;7.35;;;;;;;-144.47;48.92;52609.81;5038867;28;20131;-71
2023/07/10 08:57:33;;;;;;;15.88;6.85;;;;;;;-144.47;49.15;52635.63;5042898;28;20136;-71
2023/07/10 09:00:06;;;;;;;15.82;7.15;;;;;;;-144.47;49.25;52649.53;5043088;28;20025;-73
2023/07/10 09:02:48;;;;;;;20.13;7.60;;;;;;;-144.47;48.56;52645.56;5043711;28;20114;-71
2023/07/10 09:05:24;;;;;;;11.95;6.82;;;;;;;-144.47;47.59;52651.53;5027335;28;20120;-71
2023/07/10 09:07:50;;;;;;;14.90;7.03;;;;;;;-144.47;47.88;52647.56;5042019;28;20029;-71
2023/07/10 09:10:19;;;;;;;15.35;6.82;;;;;;;-144.47;47.50;52645.56;5043164;28;20017;-74
2023/07/10 09:13:03;;;;;;;15.55;7.32;;;;;;;-144.47;47.38;52633.66;5043643;28;20081;-73
2023/07/10 09:15:53;;;;;;;10.50;6.72;;;;;;;-144.47;47.02;52637.63;5030740;28;20074;-73
2023/07/10 09:18:28;;;;;;;15.10;6.60;;;;;;;-144.47;47.02;52649.53;5029878;28;20086;-70
2023/07/10 09:20:58;;;;;;;13.07;6.30;;;;;;;-144.47;47.01;52655.50;5041484;28;20025;-73
2023/07/10 09:23:30;;;;;;;11.90;6.25;;;;;;;-144.47;46.87;52641.59;5035380;28;20679;-72
2023/07/10 09:26:05;;;;;;;15.02;6.75;;;;;;;-144.47;46.14;52661.44;5041044;28;20057;-74
2023/07/10 09:28:31;;;;;;;16.23;7.28;;;;;;;-144.47;46.32;52663.44;5041791;28;20624;-72
2023/07/10 09:31:20;;;;;;;15.63;6.97;;;;;;;-144.47;46.42;52647.56;5033786;28;20016;-72
2023/07/10 09:33:59;;;;;;;11.50;6.55;;;;;;;-144.47;45.68;52661.44;5038919;28;20107;-72
2023/07/10 09:36:25;;;;;;;12.63;6.40;;;;;;;-144.47;46.15;52693.22;5042034;28;20201;-71
2023/07/10 09:38:52;;;;;;;13.90;5.95;;;;;;;-144.47;45.83;52671.38;5028190;28;20486;-72
2023/07/10 09:41:28;;;;;;;17.90;6.70;;;;;;;-144.47;45.55;52671.38;5040334;28;20498;-74
2023/07/10 09:44:01;;;;;;;15.32;6.68;;;;;;;-144.47;44.38;52669.41;5036412;28;20040;-74
2023/07/10 09:46:35;;;;;;;11.10;5.72;;;;;;;-144.47;43.92;52681.31;5040981;28;20104;-74
2023/07/10 09:49:03;;;;;;;13.38;5.95;;;;;;;-144.47;43.69;52693.22;5042123;28;20033;-74
2023/07/10 09:51:29;;;;;;;12.25;5.88;;;;;;;-144.47;43.79;52705.16;5043036;28;20420;-75
2023/07/10 09:54:04;;;;;;;12.35;6.05;;;;;;;-144.47;44.38;52673.38;5035013;28;20827;-72
2023/07/10 09:56:35;;;;;;;13.20;6.15;;;;;;;-144.47;44.46;52671.38;5040239;28;20159;-70
2023/07/10 09:59:16;;;;;;;15.02;6.45;;;;;;;-144.47;44.65;52705.16;5042872;28;20862;-76
2023/07/10 10:01:42;;;;;;;11.07;5.20;;;;;;;-144.47;45.16;52671.38;5042897;28;20036;-70
2023/07/10 10:04:09;;;;;;;15.07;6.32;;;;;;;-144.47;45.43;52681.31;5037425;28;20036;-72
2023/07/10 10:06:35;;;;;;;14.73;6.43;;;;;;;-144.47;45.53;52655.50;5042035;28;20832;-71
2023/07/10 10:09:14;;;;;;;20.55;6.40;;;;;;;-144.47;46.00;52691.25;5041633;28;20049;-70
2023/07/10 10:11:46;;;;;;;16.40;6.18;;;;;;;-144.47;46.15;52699.19;5042356;28;20119;-76
2023/07/10 10:14:22;;;;;;;13.57;6.03;;;;;;;-144.47;45.98;52673.38;5028538;28;20040;-75
2023/07/10 10:16:56;;;;;;;10.10;5.70;;;;;;;-144.47;45.88;52685.28;5042776;28;20025;-72
2023/07/10 10:19:36;;;;;;;25.77;6.43;;;;;;;-144.47;45.71;52665.44;5041756;28;20017;-77
2023/07/10 10:22:12;;;;;;;13.25;5.45;;;;;;;-144.47;46.45;52685.28;5040424;28;20448;-72
2023/07/10 10:24:37;;;;;;;13.65;5.53;;;;;;;-144.47;46.87;52673.38;5037955;28;20054;-73
2023/07/10 10:27:24;;;;;;;11.55;5.35;;;;;;;-144.47;46.42;52679.31;5043519;28;20645;-71
2023/07/10 10:29:55;;;;;;;12.85;5.68;;;;;;;-144.47;47.12;52661.44;5040722;28;20082;-74
2023/07/10 10:32:38;;;;;;;16.80;5.32;;;;;;;-144.47;47.54;52697.19;5042721;28;20033;-73
2023/07/10 10:35:47;;;;;;;17.10;5.78;;;;;;;-144.47;47.55;52701.19;5038433;28;20032;-72
2023/07/10 10:38:35;;;;;;;16.17;5.32;;;;;;;-144.47;48.18;52695.22;5026852;28;20165;-73
2023/07/10 10:41:15;;;;;;;8.50;4.90;;;;;;;-144.47;49.72;52713.09;5042125;28;20186;-74
2023/07/10 10:43:47;;;;;;;9.88;4.40;;;;;;;-144.47;49.90;52681.31;5035089;28;20065;-76
2023/07/10 10:46:25;;;;;;;11.95;4.45;;;;;;;-144.47;49.93;52681.31;5042115;28;20650;-73
2023/07/10 10:49:02;;;;;;;10.50;4.88;;;;;;;-144.47;50.39;52717.06;5045412;28;20039;-76
2023/07/10 10:51:54;;;;;;;14.98;5.20;;;;;;;-144.47;50.31;52699.19;5041362;28;20067;-71
2023/07/10 10:54:34;;;;;;;15.90;5.15;;;;;;;-144.47;51.88;52679.31;5027191;28;20053;-73
2023/07/10 10:57:12;;;;;;;11.50;6.00;;;;;;;-144.47;52.09;52703.16;5042697;28;20040;-77
2023/07/10 10:59:56;;;;;;;13.15;6.45;;;;;;;-144.47;52.04;52689.25;5040826;28;20040;-72
2023/07/10 11:02:40;;;;;;;12.73;6.40;;;;;;;-144.47;51.93;52677.34;5044243;28;20119;-72
2023/07/10 11:05:42;;;;;;;14.35;6.78;;;;;;;-144.47;51.41;52689.25;5034857;28;20021;-71
2023/07/10 11:08:29;;;;;;;13.70;5.90;;;;;;;-144.47;50.67;52663.44;5027822;28;20633;-70
2023/07/10 11:10:55;;;;;;;12.85;5.70;;;;;;;-144.47;51.43;52685.28;5037867;28;20024;-74
2023/07/10 11:13:35;;;;;;;10.60;5.45;;;;;;;-144.47;51.14;52689.25;5048686;28;20032;-71
2023/07/10 11:16:06;;;;;;;11.27;5.63;;;;;;;-144.47;50.53;52691.25;5040161;28;20124;-73
2023/07/10 11:18:32;;;;;;;12.38;5.35;;;;;;;-144.47;50.47;52689.25;5037161;28;20026;-72
2023/07/10 11:21:01;;;;;;;19.35;5.20;;;;;;;-144.47;50.48;52681.31;5033543;28;20040;-73